createdAt,value
2019-02-05T00:01:37.917Z,19.32
2019-02-05T00:04:28.255Z,14.35
2019-02-05T00:07:18.222Z,15.72
2019-02-05T00:10:08.790Z,17.00
2019-02-05T00:12:58.893Z,19.55
2019-02-05T00:15:49.183Z,18.52
2019-02-05T00:18:39.316Z,17.42
2019-02-05T00:21:32.603Z,15.00
2019-02-05T00:24:22.623Z,14.65
2019-02-05T00:27:12.626Z,16.80
2019-02-05T00:30:02.615Z,17.62
2019-02-05T00:32:52.945Z,18.32
2019-02-05T00:35:43.221Z,17.42
2019-02-05T00:38:33.395Z,16.45
2019-02-05T00:41:23.843Z,16.67
2019-02-05T00:44:13.626Z,18.45
2019-02-05T00:47:03.333Z,16.35
2019-02-05T00:49:53.871Z,17.62
2019-02-05T00:52:43.753Z,18.10
2019-02-05T00:55:33.694Z,15.43
2019-02-05T00:58:24.144Z,16.25
2019-02-05T01:01:15.488Z,16.80
2019-02-05T01:04:06.092Z,17.73
2019-02-05T01:06:55.695Z,15.45
2019-02-05T01:09:45.470Z,14.50
2019-02-05T01:12:35.236Z,18.02
2019-02-05T01:15:25.802Z,14.80
2019-02-05T01:18:15.606Z,15.30
2019-02-05T01:21:05.570Z,14.10
2019-02-05T01:23:56.724Z,13.30
2019-02-05T01:26:46.943Z,14.43
2019-02-05T01:29:37.136Z,13.43
2019-02-05T01:32:27.112Z,14.63
2019-02-05T01:35:17.284Z,13.18
2019-02-05T01:38:06.911Z,15.18
2019-02-05T01:40:56.926Z,13.93
2019-02-05T01:43:47.293Z,13.05
2019-02-05T01:46:38.942Z,14.10
2019-02-05T01:49:28.846Z,13.70
2019-02-05T01:52:19.292Z,13.10
2019-02-05T01:55:10.674Z,11.85
2019-02-05T01:58:01.343Z,15.63
2019-02-05T02:00:54.207Z,13.65
2019-02-05T02:03:44.681Z,13.08
2019-02-05T02:06:34.905Z,13.00
2019-02-05T02:09:26.522Z,15.95
2019-02-05T02:12:17.083Z,15.40
2019-02-05T02:15:08.123Z,15.45
2019-02-05T02:17:58.635Z,15.10
2019-02-05T02:20:48.444Z,16.15
2019-02-05T02:23:38.044Z,16.48
2019-02-05T02:26:28.013Z,16.42
2019-02-05T02:29:17.605Z,14.68
2019-02-05T02:32:07.306Z,16.00
2019-02-05T02:34:57.383Z,17.05
2019-02-05T02:37:47.743Z,17.57
2019-02-05T02:40:38.566Z,15.43
2019-02-05T02:43:28.565Z,14.40
2019-02-05T02:46:18.510Z,16.00
2019-02-05T02:49:08.626Z,15.20
2019-02-05T02:51:58.821Z,16.97
2019-02-05T02:54:49.006Z,16.55
2019-02-05T02:57:39.072Z,17.57
2019-02-05T03:00:28.763Z,16.65
2019-02-05T03:03:18.234Z,16.00
2019-02-05T03:06:08.293Z,20.68
2019-02-05T03:08:58.182Z,15.85
2019-02-05T03:11:48.873Z,18.57
2019-02-05T03:14:38.386Z,17.77
2019-02-05T03:17:28.155Z,18.42
2019-02-05T03:20:18.765Z,18.30
2019-02-05T03:23:08.065Z,16.42
2019-02-05T03:25:58.303Z,17.55
2019-02-05T03:28:47.966Z,16.73
2019-02-05T03:31:37.987Z,16.67
2019-02-05T03:34:28.066Z,18.23
2019-02-05T03:37:17.923Z,16.73
2019-02-05T03:40:16.917Z,18.57
2019-02-05T03:43:06.674Z,17.27
2019-02-05T03:45:58.595Z,17.20
2019-02-05T03:48:50.335Z,17.30
2019-02-05T03:51:52.516Z,17.40
2019-02-05T03:55:38.600Z,19.62
2019-02-05T03:59:04.144Z,17.95
2019-02-05T04:02:43.784Z,16.87
2019-02-05T04:06:07.972Z,17.87
2019-02-05T04:09:38.916Z,17.10
2019-02-05T04:13:19.005Z,18.00
2019-02-05T04:16:45.107Z,17.85
2019-02-05T04:20:23.933Z,16.50
2019-02-05T04:23:52.255Z,17.80
2019-02-05T04:27:45.174Z,17.57
2019-02-05T04:30:55.856Z,18.30
2019-02-05T04:34:18.632Z,17.00
2019-02-05T04:37:25.586Z,18.27
2019-02-05T04:40:40.475Z,19.70
2019-02-05T04:44:08.135Z,17.98
2019-02-05T04:47:14.454Z,16.50
2019-02-05T04:51:03.452Z,19.07
2019-02-05T04:54:12.392Z,16.75
2019-02-05T04:57:31.002Z,18.27
2019-02-05T05:00:57.893Z,19.42
2019-02-05T05:04:11.412Z,16.75
2019-02-05T05:07:41.463Z,19.90
2019-02-05T05:10:31.976Z,20.48
2019-02-05T05:13:22.361Z,18.42
2019-02-05T05:16:14.293Z,19.10
2019-02-05T05:19:05.294Z,17.45
2019-02-05T05:21:55.835Z,19.23
2019-02-05T05:24:46.096Z,15.80
2019-02-05T05:27:35.852Z,18.65
2019-02-05T05:30:25.764Z,16.85
2019-02-05T05:33:15.172Z,17.10
2019-02-05T05:36:05.471Z,18.20
2019-02-05T05:38:55.172Z,17.05
2019-02-05T05:41:45.034Z,17.35
2019-02-05T05:44:34.851Z,16.35
2019-02-05T05:47:24.905Z,18.17
2019-02-05T05:50:16.032Z,16.12
2019-02-05T05:53:26.394Z,18.23
2019-02-05T05:56:16.626Z,16.17
2019-02-05T05:59:07.332Z,16.50
2019-02-05T06:01:57.210Z,16.65
2019-02-05T06:04:47.636Z,17.87
2019-02-05T06:07:37.691Z,18.25
2019-02-05T06:10:28.228Z,16.12
2019-02-05T06:13:21.007Z,20.62
2019-02-05T06:16:10.835Z,18.92
2019-02-05T06:19:00.253Z,19.80
2019-02-05T06:21:50.356Z,19.87
2019-02-05T06:24:40.648Z,19.30
2019-02-05T06:27:30.394Z,19.05
2019-02-05T06:30:20.636Z,20.43
2019-02-05T06:33:12.522Z,20.60
2019-02-05T06:36:02.738Z,17.30
2019-02-05T06:38:56.299Z,18.30
2019-02-05T06:41:45.861Z,18.95
2019-02-05T06:44:35.651Z,19.00
2019-02-05T06:47:25.802Z,19.85
2019-02-05T06:50:19.314Z,21.37
2019-02-05T06:53:09.313Z,21.57
2019-02-05T06:55:59.562Z,19.57
2019-02-05T06:58:49.404Z,17.32
2019-02-05T07:01:39.574Z,19.02
2019-02-05T07:04:29.641Z,18.17
2019-02-05T07:07:19.783Z,21.57
2019-02-05T07:10:12.835Z,17.67
2019-02-05T07:13:02.423Z,18.62
2019-02-05T07:15:52.259Z,18.35
2019-02-05T07:18:42.257Z,18.57
2019-02-05T07:21:32.625Z,18.65
2019-02-05T07:24:23.168Z,18.12
2019-02-05T07:27:13.460Z,17.10
2019-02-05T07:30:03.506Z,19.73
2019-02-05T07:32:53.886Z,20.43
2019-02-05T07:35:45.279Z,19.40
2019-02-05T07:38:34.876Z,17.27
2019-02-05T07:41:24.570Z,21.70
2019-02-05T07:44:15.538Z,17.40
2019-02-05T07:47:05.990Z,17.80
2019-02-05T07:49:56.480Z,20.08
2019-02-05T07:52:46.690Z,18.50
2019-02-05T07:55:36.649Z,18.75
2019-02-05T07:58:27.906Z,20.55
2019-02-05T08:01:18.427Z,18.95
2019-02-05T08:04:08.781Z,17.20
2019-02-05T08:07:00.422Z,20.32
2019-02-05T08:09:50.841Z,19.92
2019-02-05T08:12:40.951Z,17.40
2019-02-05T08:15:33.069Z,19.87
2019-02-05T08:18:23.702Z,20.52
2019-02-05T08:21:14.450Z,20.35
2019-02-05T08:24:06.866Z,19.42
2019-02-05T08:26:58.920Z,19.77
2019-02-05T08:29:49.053Z,16.90
2019-02-05T08:32:39.339Z,20.55
2019-02-05T08:35:35.245Z,20.05
2019-02-05T08:38:26.955Z,19.98
2019-02-05T08:41:17.344Z,18.02
2019-02-05T08:44:07.792Z,18.65
2019-02-05T08:46:57.960Z,16.37
2019-02-05T08:49:48.122Z,19.25
2019-02-05T08:52:41.379Z,17.87
2019-02-05T08:55:31.958Z,17.12
2019-02-05T08:58:30.721Z,17.82
2019-02-05T09:01:14.506Z,18.75
2019-02-05T09:04:06.123Z,17.62
2019-02-05T09:06:56.280Z,17.10
2019-02-05T09:09:46.530Z,14.40
2019-02-05T09:12:36.264Z,17.48
2019-02-05T09:15:29.387Z,16.02
2019-02-05T09:18:17.339Z,17.80
2019-02-05T09:21:07.587Z,16.23
2019-02-05T09:23:57.809Z,18.40
2019-02-05T09:26:47.600Z,15.18
2019-02-05T09:29:37.537Z,15.83
2019-02-05T09:32:34.781Z,16.70
2019-02-05T09:35:19.247Z,14.30
2019-02-05T09:38:09.521Z,13.88
2019-02-05T09:40:59.418Z,13.35
2019-02-05T09:43:49.490Z,13.32
2019-02-05T09:46:39.369Z,13.90
2019-02-05T09:49:29.420Z,12.35
2019-02-05T09:52:19.166Z,14.53
2019-02-05T09:55:10.849Z,18.15
2019-02-05T09:58:00.857Z,16.00
2019-02-05T10:00:50.522Z,15.13
2019-02-05T10:03:40.770Z,14.40
2019-02-05T10:06:30.595Z,14.30
2019-02-05T10:09:20.507Z,15.58
2019-02-05T10:12:10.417Z,16.73
2019-02-05T10:15:00.471Z,17.40
2019-02-05T10:17:50.157Z,16.20
2019-02-05T10:20:40.600Z,16.23
2019-02-05T10:23:30.716Z,15.75
2019-02-05T10:26:20.776Z,18.25
2019-02-05T10:29:10.578Z,15.58
2019-02-05T10:32:00.555Z,16.07
2019-02-05T10:34:50.556Z,15.58
2019-02-05T10:37:41.640Z,20.10
2019-02-05T10:40:31.686Z,15.95
2019-02-05T10:43:21.481Z,16.55
2019-02-05T10:46:12.657Z,17.50
2019-02-05T10:49:03.389Z,13.22
2019-02-05T10:51:53.517Z,16.67
2019-02-05T10:54:43.199Z,15.90
2019-02-05T10:57:33.419Z,11.33
2019-02-05T11:00:28.452Z,13.80
2019-02-05T11:03:18.527Z,14.03
2019-02-05T11:06:08.086Z,13.22
2019-02-05T11:08:58.089Z,13.95
2019-02-05T11:11:48.097Z,13.55
2019-02-05T11:14:38.890Z,14.45
2019-02-05T11:17:29.137Z,12.75
2019-02-05T11:20:21.340Z,13.20
2019-02-05T11:23:11.347Z,12.13
2019-02-05T11:26:01.470Z,11.28
2019-02-05T11:28:51.507Z,10.00
2019-02-05T11:31:41.901Z,22.32
2019-02-05T11:34:31.939Z,14.23
2019-02-05T11:37:22.342Z,10.95
2019-02-05T11:40:14.787Z,11.80
2019-02-05T11:43:04.987Z,12.00
2019-02-05T11:45:54.617Z,9.78
2019-02-05T11:48:44.719Z,11.28
2019-02-05T11:51:35.060Z,11.25
2019-02-05T11:54:25.496Z,11.68
2019-02-05T11:57:15.477Z,11.20
2019-02-05T12:00:06.360Z,12.68
2019-02-05T12:02:56.300Z,11.63
2019-02-05T12:05:45.826Z,11.28
2019-02-05T12:08:35.617Z,10.45
2019-02-05T12:11:25.555Z,13.05
2019-02-05T12:14:15.798Z,11.38
2019-02-05T12:17:05.761Z,11.70
2019-02-05T12:19:55.849Z,12.28
2019-02-05T12:22:46.797Z,9.18
2019-02-05T12:25:37.168Z,12.23
2019-02-05T12:28:26.942Z,15.68
2019-02-05T12:31:16.669Z,13.75
2019-02-05T12:34:06.717Z,13.55
2019-02-05T12:36:56.549Z,13.15
2019-02-05T12:39:46.447Z,12.43
2019-02-05T12:42:36.519Z,14.80
2019-02-05T12:45:27.938Z,15.75
2019-02-05T12:48:17.591Z,15.60
2019-02-05T12:51:10.840Z,11.48
2019-02-05T12:54:00.670Z,11.97
2019-02-05T12:56:51.023Z,11.43
2019-02-05T12:59:41.074Z,12.40
2019-02-05T13:02:30.871Z,13.10
2019-02-05T13:05:20.899Z,12.15
2019-02-05T13:08:10.929Z,13.15
2019-02-05T13:11:00.794Z,14.68
2019-02-05T13:13:50.777Z,12.65
2019-02-05T13:16:40.701Z,13.20
2019-02-05T13:19:30.656Z,10.85
2019-02-05T13:22:20.771Z,10.50
2019-02-05T13:25:15.237Z,13.93
2019-02-05T13:28:06.531Z,12.50
2019-02-05T13:31:07.365Z,13.08
2019-02-05T13:33:48.462Z,14.00
2019-02-05T13:36:37.982Z,10.58
2019-02-05T13:39:29.316Z,12.80
2019-02-05T13:42:19.595Z,11.33
2019-02-05T13:45:11.508Z,11.38
2019-02-05T13:48:01.638Z,11.00
2019-02-05T13:50:52.437Z,12.43
2019-02-05T13:53:42.824Z,9.95
2019-02-05T13:56:33.530Z,10.28
2019-02-05T13:59:24.831Z,11.00
2019-02-05T14:02:15.145Z,9.85
2019-02-05T14:05:06.010Z,11.68
2019-02-05T14:07:56.698Z,9.95
2019-02-05T14:10:47.853Z,11.30
2019-02-05T14:13:38.144Z,9.53
2019-02-05T14:16:29.361Z,10.93
2019-02-05T14:19:19.788Z,11.10
2019-02-05T14:22:09.974Z,9.68
2019-02-05T14:24:59.970Z,9.15
2019-02-05T14:27:50.958Z,12.47
2019-02-05T14:30:50.120Z,11.38
2019-02-05T14:33:40.329Z,11.22
2019-02-05T14:36:32.869Z,10.55
2019-02-05T14:39:23.189Z,11.43
2019-02-05T14:42:13.239Z,11.28
2019-02-05T14:45:03.786Z,7.90
2019-02-05T14:47:54.356Z,9.70
2019-02-05T14:50:45.008Z,8.98
2019-02-05T14:53:34.989Z,9.85
2019-02-05T14:56:26.567Z,10.88
2019-02-05T14:59:27.550Z,9.50
2019-02-05T15:02:17.840Z,9.83
2019-02-05T15:05:09.040Z,10.20
2019-02-05T15:08:21.159Z,11.65
2019-02-05T15:11:11.228Z,9.50
2019-02-05T15:14:00.687Z,9.80
2019-02-05T15:16:52.890Z,8.75
2019-02-05T15:19:43.251Z,9.38
2019-02-05T15:22:33.899Z,10.28
2019-02-05T15:25:24.019Z,11.90
2019-02-05T15:28:13.545Z,8.25
2019-02-05T15:31:03.249Z,9.68
2019-02-05T15:34:02.523Z,9.10
2019-02-05T15:36:52.626Z,8.30
2019-02-05T15:39:42.365Z,8.98
2019-02-05T15:42:32.174Z,8.13
2019-02-05T15:45:22.386Z,9.38
2019-02-05T15:48:11.996Z,8.15
2019-02-05T15:51:01.639Z,7.03
2019-02-05T15:53:51.557Z,8.43
2019-02-05T15:56:41.761Z,8.70
2019-02-05T15:59:32.006Z,8.55
2019-02-05T16:02:22.177Z,9.00
2019-02-05T16:05:12.764Z,7.67
2019-02-05T16:08:02.651Z,8.28
2019-02-05T16:10:52.476Z,10.23
2019-02-05T16:13:42.119Z,7.72
2019-02-05T16:16:32.092Z,8.73
2019-02-05T16:19:22.010Z,9.55
2019-02-05T16:22:12.324Z,7.62
2019-02-05T16:25:02.250Z,8.13
2019-02-05T16:27:51.957Z,7.72
2019-02-05T16:30:44.866Z,8.23
2019-02-05T16:33:34.586Z,8.15
2019-02-05T16:36:24.280Z,9.25
2019-02-05T16:39:14.481Z,10.45
2019-02-05T16:42:05.061Z,10.38
2019-02-05T16:44:55.112Z,7.53
2019-02-05T16:47:45.129Z,10.18
2019-02-05T16:50:37.414Z,10.15
2019-02-05T16:53:27.341Z,9.18
2019-02-05T16:56:17.982Z,9.35
2019-02-05T16:59:07.889Z,9.43
2019-02-05T17:01:57.578Z,8.40
2019-02-05T17:04:47.511Z,8.38
2019-02-05T17:07:37.640Z,8.63
2019-02-05T17:10:27.770Z,7.97
2019-02-05T17:13:17.659Z,7.30
2019-02-05T17:16:07.309Z,6.30
2019-02-05T17:18:58.341Z,7.75
2019-02-05T17:21:48.169Z,10.00
2019-02-05T17:24:38.257Z,8.10
2019-02-05T17:27:27.790Z,8.23
2019-02-05T17:30:22.990Z,8.43
2019-02-05T17:33:12.739Z,7.40
2019-02-05T17:36:03.777Z,8.15
2019-02-05T17:38:54.138Z,7.87
2019-02-05T17:41:44.176Z,8.90
2019-02-05T17:44:34.419Z,7.92
2019-02-05T17:47:25.069Z,8.35
2019-02-05T17:50:15.369Z,10.45
2019-02-05T17:53:05.939Z,12.33
2019-02-05T17:55:55.897Z,12.60
2019-02-05T17:58:46.008Z,14.28
2019-02-05T18:01:37.470Z,13.30
2019-02-05T18:04:27.389Z,13.10
2019-02-05T18:07:17.390Z,12.33
2019-02-05T18:10:08.790Z,15.55
2019-02-05T18:12:58.493Z,14.73
2019-02-05T18:15:48.526Z,12.75
2019-02-05T18:18:39.076Z,13.55
2019-02-05T18:21:29.142Z,12.47
2019-02-05T18:24:19.258Z,11.93
2019-02-05T18:27:09.019Z,11.20
2019-02-05T18:29:58.769Z,12.37
2019-02-05T18:32:48.559Z,13.75
2019-02-05T18:35:38.820Z,12.78
2019-02-05T18:38:29.059Z,11.75
2019-02-05T18:41:19.045Z,10.05
2019-02-05T18:44:09.230Z,11.85
2019-02-05T18:46:59.301Z,11.08
2019-02-05T18:49:49.249Z,10.35
2019-02-05T18:52:40.286Z,12.55
2019-02-05T18:55:30.970Z,11.00
2019-02-05T18:58:20.827Z,8.90
2019-02-05T19:01:10.866Z,10.70
2019-02-05T19:04:00.906Z,11.35
2019-02-05T19:06:51.256Z,11.22
2019-02-05T19:09:40.975Z,10.53
2019-02-05T19:12:30.769Z,11.97
2019-02-05T19:15:22.946Z,10.40
2019-02-05T19:18:12.956Z,12.82
2019-02-05T19:21:02.819Z,10.38
2019-02-05T19:23:58.537Z,10.53
2019-02-05T19:26:51.679Z,12.15
2019-02-05T19:29:41.928Z,10.90
2019-02-05T19:32:32.028Z,11.63
2019-02-05T19:35:22.008Z,10.88
2019-02-05T19:38:13.498Z,11.53
2019-02-05T19:41:04.626Z,10.75
2019-02-05T19:43:54.331Z,9.95
2019-02-05T19:47:06.071Z,10.50
2019-02-05T19:49:58.583Z,10.48
2019-02-05T19:52:50.127Z,11.43
2019-02-05T19:55:39.961Z,11.18
2019-02-05T19:58:29.785Z,11.18
2019-02-05T20:01:19.549Z,10.45
2019-02-05T20:04:09.404Z,9.80
2019-02-05T20:06:59.709Z,12.37
2019-02-05T20:09:49.590Z,12.82
2019-02-05T20:12:39.579Z,11.45
2019-02-05T20:15:29.783Z,10.78
2019-02-05T20:18:19.519Z,10.43
2019-02-05T20:21:09.749Z,11.12
2019-02-05T20:23:59.853Z,12.88
2019-02-05T20:26:49.619Z,11.55
2019-02-05T20:29:39.779Z,13.75
2019-02-05T20:32:29.899Z,14.33
2019-02-05T20:35:19.800Z,12.58
2019-02-05T20:38:10.495Z,10.93
2019-02-05T20:41:00.843Z,13.93
2019-02-05T20:43:50.959Z,11.35
2019-02-05T20:46:41.060Z,13.45
2019-02-05T20:49:30.741Z,11.85
2019-02-05T20:52:20.976Z,13.72
2019-02-05T20:55:13.350Z,14.30
2019-02-05T20:58:03.439Z,11.73
2019-02-05T21:00:53.299Z,15.68
2019-02-05T21:03:43.341Z,15.43
2019-02-05T21:06:33.295Z,15.50
2019-02-05T21:09:23.567Z,14.07
2019-02-05T21:12:13.006Z,14.75
2019-02-05T21:15:02.719Z,15.68
2019-02-05T21:17:53.206Z,15.32
2019-02-05T21:20:42.636Z,15.60
2019-02-05T21:23:32.552Z,18.50
2019-02-05T21:26:22.717Z,15.40
2019-02-05T21:29:12.541Z,18.12
2019-02-05T21:32:03.106Z,18.30
2019-02-05T21:34:53.496Z,16.60
2019-02-05T21:37:43.587Z,19.00
2019-02-05T21:40:33.561Z,18.27
2019-02-05T21:43:23.580Z,15.90
2019-02-05T21:46:13.702Z,17.37
2019-02-05T21:49:03.480Z,19.23
2019-02-05T21:51:53.270Z,20.62
2019-02-05T21:54:43.249Z,20.55
2019-02-05T21:57:32.947Z,20.37
2019-02-05T22:00:31.400Z,20.43
2019-02-05T22:03:21.151Z,20.62
2019-02-05T22:06:11.023Z,18.55
2019-02-05T22:09:01.106Z,23.07
2019-02-05T22:11:52.476Z,20.75
2019-02-05T22:14:42.407Z,24.55
2019-02-05T22:17:32.692Z,20.05
2019-02-05T22:20:24.789Z,21.52
2019-02-05T22:23:14.718Z,23.22
2019-02-05T22:26:04.887Z,23.07
2019-02-05T22:28:54.667Z,24.43
2019-02-05T22:31:44.877Z,25.45
2019-02-05T22:34:39.260Z,25.27
2019-02-05T22:37:26.647Z,26.30
2019-02-05T22:40:17.339Z,28.15
2019-02-05T22:43:07.021Z,24.75
2019-02-05T22:45:56.960Z,26.60
2019-02-05T22:48:47.049Z,28.73
2019-02-05T22:51:37.038Z,29.95
2019-02-05T22:54:27.013Z,31.75
2019-02-05T22:57:17.190Z,31.23
2019-02-05T23:00:33.858Z,33.48
2019-02-05T23:03:46.566Z,31.07
2019-02-05T23:06:56.068Z,30.10
2019-02-05T23:09:52.647Z,30.10
2019-02-05T23:13:06.249Z,35.80
2019-02-05T23:15:55.971Z,32.90
2019-02-05T23:18:46.097Z,31.05
2019-02-05T23:21:36.999Z,31.33
2019-02-05T23:24:27.054Z,35.60
2019-02-05T23:27:16.923Z,35.68
2019-02-05T23:30:13.755Z,35.80
2019-02-05T23:33:03.352Z,32.33
2019-02-05T23:35:54.109Z,32.50
2019-02-05T23:39:05.654Z,31.35
2019-02-05T23:41:56.773Z,31.05
2019-02-05T23:44:46.951Z,32.85
2019-02-05T23:47:37.356Z,32.13
2019-02-05T23:50:27.253Z,28.75
2019-02-05T23:53:23.172Z,33.83
2019-02-05T23:56:25.263Z,30.52
2019-02-05T23:59:05.331Z,32.88
